createdAt,value
2023-01-09T00:00:14.000Z,5.7
2023-01-09T00:01:30.000Z,5.1
2023-01-09T00:02:47.000Z,5.6
2023-01-09T00:04:03.000Z,5.8
2023-01-09T00:05:19.590Z,5.8
2023-01-09T00:06:35.000Z,6
2023-01-09T00:07:51.000Z,5.7
2023-01-09T00:09:07.000Z,6.7
2023-01-09T00:10:23.000Z,6.1
2023-01-09T00:11:40.000Z,5.5
2023-01-09T00:12:56.000Z,5.9
2023-01-09T00:14:12.000Z,5.4
2023-01-09T00:15:27.000Z,6.3
2023-01-09T00:16:43.000Z,5.9
2023-01-09T00:17:59.000Z,6
2023-01-09T00:19:15.000Z,6.1
2023-01-09T00:20:32.000Z,6.4
2023-01-09T00:21:48.000Z,5.9
2023-01-09T00:23:04.000Z,5.6
2023-01-09T00:24:20.000Z,6.2
2023-01-09T00:25:36.957Z,6.6
2023-01-09T00:26:52.000Z,6.8
2023-01-09T00:28:09.000Z,6.6
2023-01-09T00:29:25.000Z,7.3
2023-01-09T00:30:41.000Z,6.5
2023-01-09T00:31:56.705Z,6.7
2023-01-09T00:33:12.000Z,7.5
2023-01-09T00:34:28.000Z,6.9
2023-01-09T00:35:44.000Z,7.3
2023-01-09T00:37:01.000Z,7
2023-01-09T00:38:17.000Z,6.8
2023-01-09T00:39:33.000Z,7
2023-01-09T00:40:49.000Z,7.1
2023-01-09T00:42:05.000Z,6.8
2023-01-09T00:43:21.000Z,6.8
2023-01-09T00:44:37.000Z,7.9
2023-01-09T00:45:54.000Z,7.5
2023-01-09T00:47:10.000Z,7.3
2023-01-09T00:48:25.000Z,7.3
2023-01-09T00:49:41.000Z,7.4
2023-01-09T00:50:57.000Z,7.9
2023-01-09T00:52:13.000Z,7.6
2023-01-09T00:53:29.000Z,7
2023-01-09T00:54:46.000Z,8.6
2023-01-09T00:56:02.000Z,8.4
2023-01-09T00:57:18.000Z,8.3
2023-01-09T00:58:34.000Z,8.4
2023-01-09T00:59:50.000Z,8.3
2023-01-09T01:01:06.000Z,7.8
2023-01-09T01:02:23.000Z,9
2023-01-09T01:03:39.000Z,8.2
2023-01-09T01:04:54.000Z,8.3
2023-01-09T01:06:10.000Z,8.5
2023-01-09T01:07:26.000Z,8.2
2023-01-09T01:08:42.000Z,8.4
2023-01-09T01:09:58.000Z,9.4
2023-01-09T01:11:15.000Z,8.4
2023-01-09T01:12:31.434Z,9
2023-01-09T01:13:47.000Z,9.3
2023-01-09T01:15:03.000Z,8.7
2023-01-09T01:16:19.000Z,9.5
2023-01-09T01:17:35.000Z,9.5
2023-01-09T01:18:51.000Z,9.7
2023-01-09T01:20:08.000Z,9.8
2023-01-09T01:21:23.000Z,9.7
2023-01-09T01:22:39.000Z,9.1
2023-01-09T01:23:55.000Z,9.5
2023-01-09T01:25:11.000Z,9.2
2023-01-09T01:26:27.000Z,9.4
2023-01-09T01:27:43.000Z,9.8
2023-01-09T01:28:59.000Z,9.4
2023-01-09T01:30:15.000Z,9.5
2023-01-09T01:31:31.000Z,9.2
2023-01-09T01:32:47.000Z,9.1
2023-01-09T01:34:03.000Z,8.9
2023-01-09T01:35:19.000Z,8.6
2023-01-09T01:36:36.000Z,8.9
2023-01-09T01:37:52.000Z,9.4
2023-01-09T01:39:08.000Z,9.4
2023-01-09T01:40:24.000Z,8.8
2023-01-09T01:41:40.000Z,8.6
2023-01-09T01:42:56.000Z,9.9
2023-01-09T01:44:12.000Z,9
2023-01-09T01:45:28.000Z,8.4
2023-01-09T01:46:44.459Z,8.4
2023-01-09T01:48:00.000Z,9.8
2023-01-09T01:49:16.000Z,10.2
2023-01-09T01:50:32.888Z,9.4
2023-01-09T01:51:48.000Z,9.5
2023-01-09T01:53:04.000Z,9.7
2023-01-09T01:54:21.332Z,9.2
2023-01-09T01:55:37.000Z,9.4
2023-01-09T01:56:53.000Z,9.1
2023-01-09T01:58:09.000Z,8.9
2023-01-09T01:59:25.000Z,9.3
2023-01-09T02:00:41.000Z,9
2023-01-09T02:01:57.000Z,8.8
2023-01-09T02:03:13.000Z,9.4
2023-01-09T02:04:29.519Z,8.3
2023-01-09T02:05:45.000Z,9.2
2023-01-09T02:07:01.000Z,8.2
2023-01-09T02:08:17.000Z,8.6
2023-01-09T02:09:33.000Z,8.5
2023-01-09T02:10:50.000Z,8
2023-01-09T02:12:06.415Z,8.1
2023-01-09T02:13:22.000Z,8
2023-01-09T02:14:38.000Z,7.8
2023-01-09T02:15:54.000Z,7.4
2023-01-09T02:17:10.000Z,7.2
2023-01-09T02:18:26.152Z,7.4
2023-01-09T02:19:42.000Z,8.1
2023-01-09T02:20:58.000Z,8.1
2023-01-09T02:22:14.000Z,7.2
2023-01-09T02:23:30.000Z,7.9
2023-01-09T02:24:46.000Z,7.1
2023-01-09T02:26:02.000Z,6.9
2023-01-09T02:27:18.000Z,6.3
2023-01-09T02:28:35.000Z,7.2
2023-01-09T02:29:51.000Z,6.9
2023-01-09T02:31:07.000Z,6.6
2023-01-09T02:32:23.000Z,6.7
2023-01-09T02:33:39.000Z,6.3
2023-01-09T02:34:55.080Z,6
2023-01-09T02:36:10.000Z,6.3
2023-01-09T02:37:27.000Z,5.9
2023-01-09T02:38:43.000Z,5.8
2023-01-09T02:39:59.000Z,5.2
2023-01-09T02:41:15.000Z,5.6
2023-01-09T02:42:31.000Z,5.2
2023-01-09T02:43:47.000Z,5.1
2023-01-09T02:45:04.000Z,5
2023-01-09T02:46:20.000Z,5.5
2023-01-09T02:47:36.000Z,5.5
2023-01-09T02:48:52.000Z,4.8
2023-01-09T02:50:08.000Z,4.8
2023-01-09T02:51:23.000Z,5.3
2023-01-09T02:52:39.000Z,6
2023-01-09T02:53:56.304Z,5.1
2023-01-09T02:55:12.000Z,5.7
2023-01-09T02:56:28.000Z,5.9
2023-01-09T02:57:44.000Z,6
2023-01-09T02:59:00.000Z,5.2
2023-01-09T03:00:16.000Z,5.6
2023-01-09T03:01:32.000Z,5.6
2023-01-09T03:02:49.000Z,4.7
2023-01-09T03:04:05.000Z,5.7
2023-01-09T03:05:21.000Z,5.7
2023-01-09T03:06:37.770Z,5.9
2023-01-09T03:07:52.000Z,5.4
2023-01-09T03:09:08.000Z,5.5
2023-01-09T03:10:25.229Z,6.3
2023-01-09T03:11:41.000Z,5.3
2023-01-09T03:12:57.000Z,5.2
2023-01-09T03:14:13.000Z,5.9
2023-01-09T03:15:29.814Z,5.4
2023-01-09T03:16:45.000Z,5.6
2023-01-09T03:18:02.113Z,5.2
2023-01-09T03:19:18.000Z,5.7
2023-01-09T03:20:34.000Z,5.9
2023-01-09T03:21:50.000Z,5.8
2023-01-09T03:23:06.696Z,5.1
2023-01-09T03:24:21.000Z,5.8
2023-01-09T03:25:37.000Z,5.6
2023-01-09T03:26:53.000Z,5.8
2023-01-09T03:28:10.000Z,5.5
2023-01-09T03:29:26.000Z,5.5
2023-01-09T03:30:42.000Z,5.1
2023-01-09T03:31:58.743Z,6
2023-01-09T03:33:14.000Z,5.1
2023-01-09T03:34:30.000Z,5.3
2023-01-09T03:35:46.000Z,5
2023-01-09T03:37:03.000Z,5
2023-01-09T03:38:19.000Z,5.5
2023-01-09T03:39:35.000Z,5.2
2023-01-09T03:40:50.000Z,5.7
2023-01-09T03:42:06.000Z,5.1
2023-01-09T03:43:22.000Z,5
2023-01-09T03:44:39.000Z,5.6
2023-01-09T03:45:55.000Z,5.5
2023-01-09T03:47:11.525Z,5.6
2023-01-09T03:48:27.000Z,5.8
2023-01-09T03:49:43.000Z,5.8
2023-01-09T03:50:59.000Z,5.8
2023-01-09T03:52:15.000Z,5.9
2023-01-09T03:53:32.000Z,6.1
2023-01-09T03:54:48.000Z,6.3
2023-01-09T03:56:04.000Z,5.5
2023-01-09T03:57:19.000Z,6.4
2023-01-09T03:58:35.000Z,6.5
2023-01-09T03:59:51.000Z,6
2023-01-09T04:01:07.000Z,6.5
2023-01-09T04:02:24.000Z,6.1
2023-01-09T04:03:40.000Z,6.3
2023-01-09T04:04:56.000Z,6
2023-01-09T04:06:12.000Z,7
2023-01-09T04:07:28.000Z,6.5
2023-01-09T04:08:44.000Z,6.5
2023-01-09T04:10:00.000Z,6.2
2023-01-09T04:11:17.000Z,6.7
2023-01-09T04:12:33.000Z,6.2
2023-01-09T04:13:48.000Z,6.3
2023-01-09T04:15:04.000Z,6.4
2023-01-09T04:16:20.000Z,7
2023-01-09T04:17:36.000Z,7.7
2023-01-09T04:18:53.000Z,7.3
2023-01-09T04:20:09.381Z,7
2023-01-09T04:21:25.000Z,7.6
2023-01-09T04:22:41.000Z,7.5
2023-01-09T04:23:57.000Z,7.7
2023-01-09T04:25:13.000Z,8.4
2023-01-09T04:26:29.000Z,8
2023-01-09T04:27:46.000Z,8.4
2023-01-09T04:29:02.000Z,7.8
2023-01-09T04:30:17.000Z,8.4
2023-01-09T04:31:33.000Z,8.3
2023-01-09T04:32:49.000Z,9.4
2023-01-09T04:34:05.000Z,9.3
2023-01-09T04:35:21.000Z,8.8
2023-01-09T04:36:38.312Z,9.4
2023-01-09T04:37:54.000Z,9.5
2023-01-09T04:39:10.000Z,10.1
2023-01-09T04:40:26.000Z,9.8
2023-01-09T04:41:42.000Z,10.5
2023-01-09T04:42:58.000Z,10.6
2023-01-09T04:44:14.000Z,10.3
2023-01-09T04:45:31.000Z,11.1
2023-01-09T04:46:46.000Z,10.7
2023-01-09T04:48:02.000Z,11.1
2023-01-09T04:49:18.000Z,10.9
2023-01-09T04:50:34.948Z,10.8
2023-01-09T04:51:50.000Z,11.4
2023-01-09T04:53:07.000Z,11.5
2023-01-09T04:54:23.000Z,12.1
2023-01-09T04:55:39.000Z,11.9
2023-01-09T04:56:55.679Z,10.7
2023-01-09T04:58:11.000Z,12
2023-01-09T04:59:27.000Z,11.4
2023-01-09T05:00:43.000Z,11.8
2023-01-09T05:02:00.000Z,11.6
2023-01-09T05:03:15.000Z,11.5
2023-01-09T05:04:31.000Z,11.3
2023-01-09T05:05:47.000Z,11.5
2023-01-09T05:07:03.000Z,12.1
2023-01-09T05:08:19.000Z,12.8
2023-01-09T05:09:35.000Z,12.3
2023-01-09T05:10:52.000Z,12.6
2023-01-09T05:12:08.000Z,11.7
2023-01-09T05:13:24.000Z,12.5
2023-01-09T05:14:40.000Z,12.3
2023-01-09T05:15:56.000Z,12.4
2023-01-09T05:17:12.000Z,12
2023-01-09T05:18:28.000Z,11.9
2023-01-09T05:19:44.000Z,10.7
2023-01-09T05:21:00.000Z,10.6
2023-01-09T05:22:16.000Z,11.2
2023-01-09T05:23:32.000Z,10.9
2023-01-09T05:24:48.000Z,10.3
2023-01-09T05:26:04.000Z,8.9
2023-01-09T05:27:21.000Z,9
2023-01-09T05:28:37.000Z,9.1
2023-01-09T05:29:53.000Z,9.6
2023-01-09T05:31:09.000Z,7.9
2023-01-09T05:32:25.000Z,8.7
2023-01-09T05:33:41.000Z,8.2
2023-01-09T05:34:57.000Z,8.5
2023-01-09T05:36:14.000Z,7.3
2023-01-09T05:37:29.000Z,7.1
2023-01-09T05:38:45.000Z,7.2
2023-01-09T05:40:01.000Z,6.2
2023-01-09T05:41:17.000Z,5.7
2023-01-09T05:42:33.000Z,5.7
2023-01-09T05:43:48.000Z,5.9
2023-01-09T05:45:05.000Z,6.1
2023-01-09T05:46:21.000Z,5.9
2023-01-09T05:47:37.000Z,5.8
2023-01-09T05:48:53.000Z,5.2
2023-01-09T05:50:09.000Z,5.5
2023-01-09T05:51:25.000Z,4.7
2023-01-09T05:52:41.000Z,4.5
2023-01-09T05:53:58.000Z,5.5
2023-01-09T05:55:14.279Z,4.5
2023-01-09T05:56:30.000Z,4.2
2023-01-09T05:57:46.000Z,4.1
2023-01-09T05:59:02.000Z,3.9
2023-01-09T06:00:17.000Z,3.6
2023-01-09T06:01:34.000Z,3.5
2023-01-09T06:02:50.000Z,4.1
2023-01-09T06:04:06.000Z,3.8
2023-01-09T06:05:22.000Z,4.2
2023-01-09T06:06:38.000Z,4.1
2023-01-09T06:07:54.000Z,4.6
2023-01-09T06:09:10.000Z,4.6
2023-01-09T06:10:27.000Z,4.2
2023-01-09T06:11:43.000Z,4.6
2023-01-09T06:12:59.000Z,4.2
2023-01-09T06:14:15.000Z,4.4
2023-01-09T06:15:31.000Z,4.5
2023-01-09T06:16:46.000Z,4.3
2023-01-09T06:18:02.000Z,4.5
2023-01-09T06:19:19.353Z,4.7
2023-01-09T06:20:35.000Z,4.7
2023-01-09T06:21:51.000Z,4.3
2023-01-09T06:23:07.773Z,4
2023-01-09T06:24:23.000Z,3.9
2023-01-09T06:25:39.000Z,3.9
2023-01-09T06:26:55.000Z,3.6
2023-01-09T06:28:12.000Z,3.5
2023-01-09T06:29:28.000Z,2.9
2023-01-09T06:30:44.000Z,3.9
2023-01-09T06:32:00.000Z,3.6
2023-01-09T06:33:15.000Z,3.4
2023-01-09T06:34:31.000Z,3.8
2023-01-09T06:35:48.000Z,4.1
2023-01-09T06:37:04.000Z,4.2
2023-01-09T06:38:20.000Z,3.9
2023-01-09T06:39:36.000Z,4.5
2023-01-09T06:40:52.000Z,4.5
2023-01-09T06:42:08.000Z,4
2023-01-09T06:43:24.000Z,4.5
2023-01-09T06:44:41.000Z,5
2023-01-09T06:45:57.000Z,4.8
2023-01-09T06:47:13.000Z,4.8
2023-01-09T06:48:29.000Z,4.7
2023-01-09T06:49:44.000Z,5.1
2023-01-09T06:51:00.000Z,4.5
2023-01-09T06:52:16.000Z,4.5
2023-01-09T06:53:33.000Z,4.3
2023-01-09T06:54:49.000Z,4.6
2023-01-09T06:56:05.000Z,4.9
2023-01-09T06:57:21.000Z,5
2023-01-09T06:58:37.000Z,5.1
2023-01-09T06:59:53.000Z,4.8
2023-01-09T07:01:09.000Z,4.9
2023-01-09T07:02:26.000Z,4.7
2023-01-09T07:03:42.000Z,4.7
2023-01-09T07:04:58.000Z,4.9
2023-01-09T07:06:13.000Z,4.7
2023-01-09T07:07:29.000Z,4.6
2023-01-09T07:08:45.000Z,4.3
2023-01-09T07:10:02.000Z,4.6
2023-01-09T07:11:18.000Z,5.2
2023-01-09T07:12:34.000Z,5.1
2023-01-09T07:13:50.000Z,5.2
2023-01-09T07:15:06.000Z,5.1
2023-01-09T07:16:22.000Z,5.4
2023-01-09T07:17:38.000Z,6.4
2023-01-09T07:18:55.000Z,5.3
2023-01-09T07:20:11.000Z,5.5
2023-01-09T07:21:27.000Z,6
2023-01-09T07:22:42.000Z,5.9
2023-01-09T07:23:58.873Z,6.1
2023-01-09T07:25:14.000Z,5.6
2023-01-09T07:26:30.000Z,5.7
2023-01-09T07:27:47.000Z,5.2
2023-01-09T07:29:03.000Z,5.8
2023-01-09T07:30:19.000Z,5.4
2023-01-09T07:31:35.000Z,5.2
2023-01-09T07:32:51.000Z,5.6
2023-01-09T07:34:07.000Z,4.7
2023-01-09T07:35:23.000Z,5.2
2023-01-09T07:36:40.000Z,5.1
2023-01-09T07:37:56.000Z,4.9
2023-01-09T07:39:11.000Z,5.6
2023-01-09T07:40:27.000Z,5.5
2023-01-09T07:41:43.000Z,5.6
2023-01-09T07:42:59.000Z,5.5
2023-01-09T07:44:15.000Z,5.9
2023-01-09T07:45:32.000Z,6.2
2023-01-09T07:46:48.000Z,5.8
2023-01-09T07:48:04.000Z,7
2023-01-09T07:49:20.000Z,7.4
2023-01-09T07:50:36.000Z,7.9
2023-01-09T07:51:53.093Z,8
2023-01-09T07:53:09.000Z,7.5
2023-01-09T07:54:25.000Z,8.1
2023-01-09T07:55:40.000Z,8.8
2023-01-09T07:56:56.000Z,8.9
2023-01-09T07:58:12.000Z,8.8
2023-01-09T07:59:28.000Z,10.2
2023-01-09T08:00:44.000Z,9.7
2023-01-09T08:02:01.271Z,9.8
2023-01-09T08:03:17.000Z,9.4
2023-01-09T08:04:33.000Z,10.2
2023-01-09T08:05:49.000Z,9.6
2023-01-09T08:07:05.000Z,10.1
2023-01-09T08:08:21.000Z,10
2023-01-09T08:09:37.000Z,9.7
2023-01-09T08:10:54.000Z,9.2
2023-01-09T08:12:09.000Z,9.8
2023-01-09T08:13:25.000Z,9.9
2023-01-09T08:14:41.000Z,10.3
2023-01-09T08:15:57.000Z,9.9
2023-01-09T08:17:13.000Z,9.4
2023-01-09T08:18:29.000Z,9.5
2023-01-09T08:19:46.000Z,9.9
2023-01-09T08:21:02.000Z,10
2023-01-09T08:22:18.000Z,10
2023-01-09T08:23:34.000Z,10.1
2023-01-09T08:24:50.000Z,9.5
2023-01-09T08:26:06.000Z,9
2023-01-09T08:27:22.000Z,9.2
2023-01-09T08:28:38.355Z,9.5
2023-01-09T08:29:54.000Z,10.2
2023-01-09T08:31:10.000Z,9
2023-01-09T08:32:26.000Z,8.9
2023-01-09T08:33:42.000Z,9.4
2023-01-09T08:34:58.000Z,8.3
2023-01-09T08:36:15.000Z,8.9
2023-01-09T08:37:31.000Z,8
2023-01-09T08:38:47.000Z,8.3
2023-01-09T08:40:03.000Z,8
2023-01-09T08:41:19.000Z,8.7
2023-01-09T08:42:35.000Z,8
2023-01-09T08:43:51.000Z,8
2023-01-09T08:45:07.000Z,7.4
2023-01-09T08:46:23.418Z,9.6
2023-01-09T08:47:39.000Z,8.1
2023-01-09T08:48:55.000Z,7.7
2023-01-09T08:50:11.000Z,7.2
2023-01-09T08:51:27.000Z,8.1
2023-01-09T08:52:43.000Z,7.5
2023-01-09T08:54:00.000Z,7.3
2023-01-09T08:55:16.000Z,7.3
2023-01-09T08:56:32.000Z,7.3
2023-01-09T08:57:48.000Z,7.7
2023-01-09T08:59:04.000Z,7.3
2023-01-09T09:00:20.000Z,7.4
2023-01-09T09:01:35.000Z,6.4
2023-01-09T09:02:52.000Z,7.2
2023-01-09T09:04:08.000Z,7
2023-01-09T09:05:24.000Z,6.6
2023-01-09T09:06:40.000Z,7.4
2023-01-09T09:07:56.000Z,7.1
2023-01-09T09:09:13.049Z,7.5
2023-01-09T09:10:28.000Z,7.5
2023-01-09T09:11:45.000Z,7.7
2023-01-09T09:13:01.000Z,7.8
2023-01-09T09:14:17.000Z,8.4
2023-01-09T09:15:33.000Z,7.7
2023-01-09T09:16:49.000Z,7.2
2023-01-09T09:18:04.000Z,7.4
2023-01-09T09:19:21.232Z,8.2
2023-01-09T09:20:37.000Z,8
2023-01-09T09:21:53.000Z,8
2023-01-09T09:23:09.000Z,9
2023-01-09T09:24:25.000Z,8
2023-01-09T09:25:41.000Z,8.5
2023-01-09T09:26:57.000Z,8.6
2023-01-09T09:28:14.000Z,8.1
2023-01-09T09:29:30.000Z,8.6
2023-01-09T09:30:46.000Z,9.4
2023-01-09T09:32:02.690Z,8.5
2023-01-09T09:33:18.000Z,9.2
2023-01-09T09:34:33.000Z,8.9
2023-01-09T09:35:49.000Z,8.7
2023-01-09T09:37:06.000Z,7.9
2023-01-09T09:38:22.000Z,8.9
2023-01-09T09:39:38.000Z,8.3
2023-01-09T09:40:54.000Z,9.7
2023-01-09T09:42:10.000Z,8.6
2023-01-09T09:43:26.000Z,9.3
2023-01-09T09:44:42.000Z,9.7
2023-01-09T09:45:59.000Z,10
2023-01-09T09:47:15.000Z,9.2
2023-01-09T09:48:31.000Z,9.7
2023-01-09T09:49:47.000Z,9.6
2023-01-09T09:51:02.000Z,9.2
2023-01-09T09:52:18.000Z,8.8
2023-01-09T09:53:35.197Z,9.6
2023-01-09T09:54:51.000Z,10
2023-01-09T09:56:07.526Z,9.7
2023-01-09T09:57:23.000Z,9.6
2023-01-09T09:58:38.798Z,10
2023-01-09T09:59:54.000Z,9.8
2023-01-09T10:01:11.093Z,10
2023-01-09T10:02:27.000Z,9.8
2023-01-09T10:03:43.000Z,9.7
2023-01-09T10:04:59.000Z,10.6
2023-01-09T10:06:15.000Z,10.1
2023-01-09T10:07:31.000Z,9.5
2023-01-09T10:08:47.000Z,9.5
2023-01-09T10:10:03.000Z,9.7
2023-01-09T10:11:20.000Z,10.5
2023-01-09T10:12:36.000Z,10.3
2023-01-09T10:13:52.000Z,10.8
2023-01-09T10:15:07.000Z,11.2
2023-01-09T10:16:23.000Z,9.9
2023-01-09T10:17:39.000Z,9.7
2023-01-09T10:18:55.000Z,11.5
2023-01-09T10:20:12.000Z,10.6
2023-01-09T10:21:28.000Z,10.7
2023-01-09T10:22:44.000Z,12.1
2023-01-09T10:24:00.000Z,11.7
2023-01-09T10:25:16.000Z,10.4
2023-01-09T10:26:32.000Z,10.8
2023-01-09T10:27:48.000Z,10.6
2023-01-09T10:29:05.000Z,11.1
2023-01-09T10:30:21.000Z,11.7
2023-01-09T10:31:36.000Z,11.5
2023-01-09T10:32:52.767Z,10.7
2023-01-09T10:34:08.000Z,10.9
2023-01-09T10:35:24.000Z,11.3
2023-01-09T10:36:41.200Z,11.2
2023-01-09T10:37:57.000Z,11.3
2023-01-09T10:39:13.000Z,11.3
2023-01-09T10:40:29.000Z,11.4
2023-01-09T10:41:45.783Z,11.7
2023-01-09T10:43:01.000Z,11.5
2023-01-09T10:44:18.072Z,12.1
2023-01-09T10:45:33.000Z,12.2
2023-01-09T10:46:50.000Z,12.4
2023-01-09T10:48:05.000Z,13.2
2023-01-09T10:49:21.000Z,13.8
2023-01-09T10:50:37.000Z,14.4
2023-01-09T10:51:53.000Z,13.6
2023-01-09T10:53:09.000Z,14.5
2023-01-09T10:54:26.254Z,14.8
2023-01-09T10:55:42.000Z,14.1
2023-01-09T10:56:58.000Z,14.5
2023-01-09T10:58:14.000Z,13.5
2023-01-09T10:59:30.000Z,14.2
2023-01-09T11:00:46.000Z,13.9
2023-01-09T11:02:02.000Z,14
2023-01-09T11:03:19.000Z,13.4
2023-01-09T11:04:34.000Z,14.1
2023-01-09T11:05:50.000Z,12.6
2023-01-09T11:07:06.000Z,13
2023-01-09T11:08:22.000Z,12.8
2023-01-09T11:09:38.000Z,13.7
2023-01-09T11:10:54.000Z,13.6
2023-01-09T11:12:11.000Z,12.8
2023-01-09T11:13:27.000Z,13.3
2023-01-09T11:14:43.000Z,13.2
2023-01-09T11:15:59.000Z,12.8
2023-01-09T11:17:15.000Z,13.3
2023-01-09T11:18:31.000Z,13.7
2023-01-09T11:19:47.000Z,14.3
2023-01-09T11:21:03.000Z,13.1
2023-01-09T11:22:19.000Z,12.9
2023-01-09T11:23:35.636Z,13.5
2023-01-09T11:24:51.776Z,13.4
2023-01-09T11:26:07.000Z,12.9
2023-01-09T11:27:24.076Z,14.8
2023-01-09T11:28:39.000Z,13.6
2023-01-09T11:29:56.000Z,13.7
2023-01-09T11:31:12.000Z,13.6
2023-01-09T11:32:28.000Z,13.6
2023-01-09T11:33:44.000Z,14.4
2023-01-09T11:35:00.000Z,14
2023-01-09T11:36:16.000Z,14.5
2023-01-09T11:37:32.000Z,15.8
2023-01-09T11:38:48.392Z,15.3
2023-01-09T11:40:04.000Z,15.8
2023-01-09T11:41:20.000Z,15.3
2023-01-09T11:42:36.000Z,16.3
2023-01-09T11:43:52.000Z,16.6
2023-01-09T11:45:08.000Z,15.7
2023-01-09T11:46:25.000Z,15.3
2023-01-09T11:47:41.000Z,16
2023-01-09T11:48:57.000Z,16.3
2023-01-09T11:50:13.709Z,15.8
2023-01-09T11:51:29.852Z,15.3
2023-01-09T11:52:45.000Z,15.2
2023-01-09T11:54:01.162Z,15.2
2023-01-09T11:55:17.000Z,16
2023-01-09T11:56:33.000Z,16.4
2023-01-09T11:57:49.000Z,17.1
2023-01-09T11:59:05.000Z,18.6
2023-01-09T12:00:21.000Z,18
2023-01-09T12:01:37.000Z,18.9
2023-01-09T12:02:53.000Z,19.4
2023-01-09T12:04:10.329Z,17.7
2023-01-09T12:05:26.000Z,18.2
2023-01-09T12:06:42.614Z,17.5
2023-01-09T12:07:58.000Z,19.2
2023-01-09T12:09:14.000Z,19.5
2023-01-09T12:10:29.000Z,19.5
2023-01-09T12:11:45.000Z,20.7
2023-01-09T12:13:02.367Z,20.7
2023-01-09T12:14:18.000Z,20.6
2023-01-09T12:15:34.000Z,20.8
2023-01-09T12:16:50.000Z,22.6
2023-01-09T12:18:06.000Z,21
2023-01-09T12:19:22.000Z,20.3
2023-01-09T12:20:39.247Z,21.3
2023-01-09T12:21:55.379Z,21.1
2023-01-09T12:23:11.000Z,21.8
2023-01-09T12:24:27.000Z,20.6
2023-01-09T12:25:43.000Z,19.3
2023-01-09T12:26:58.000Z,18.7
2023-01-09T12:28:15.127Z,20
2023-01-09T12:29:31.000Z,19.1
2023-01-09T12:30:47.000Z,20
2023-01-09T12:32:03.000Z,18.9
2023-01-09T12:33:19.000Z,20.3
2023-01-09T12:34:35.000Z,20.6
2023-01-09T12:35:51.000Z,21.3
2023-01-09T12:37:08.145Z,21
2023-01-09T12:38:24.000Z,21.7
2023-01-09T12:39:40.000Z,21.5
2023-01-09T12:40:56.000Z,22.4
2023-01-09T12:42:12.000Z,25
2023-01-09T12:43:27.000Z,25.9
2023-01-09T12:44:43.000Z,28.9
2023-01-09T12:46:00.186Z,29.5
2023-01-09T12:47:16.000Z,31.2
2023-01-09T12:48:32.000Z,32.7
2023-01-09T12:49:48.000Z,31.7
2023-01-09T12:51:04.000Z,30.2
2023-01-09T12:52:20.906Z,31.1
2023-01-09T12:53:36.000Z,31.1
2023-01-09T12:54:52.000Z,31.7
2023-01-09T12:56:09.000Z,29.8
2023-01-09T12:57:25.492Z,30.8
2023-01-09T12:58:41.635Z,29.3
2023-01-09T12:59:56.000Z,29.1
2023-01-09T13:01:12.000Z,31.5
2023-01-09T13:02:28.000Z,31
2023-01-09T13:03:45.000Z,32.3
2023-01-09T13:05:01.000Z,33.8
2023-01-09T13:06:17.000Z,33.5
2023-01-09T13:07:33.000Z,34.2
2023-01-09T13:08:49.000Z,34.7
2023-01-09T13:10:05.000Z,32.9
2023-01-09T13:11:21.000Z,33.4
2023-01-09T13:12:38.000Z,32.8
2023-01-09T13:13:54.424Z,32.3
2023-01-09T13:15:10.000Z,32.5
2023-01-09T13:16:25.000Z,32.9
2023-01-09T13:17:41.000Z,32
2023-01-09T13:18:58.006Z,31.1
2023-01-09T13:20:13.000Z,31
2023-01-09T13:21:30.000Z,31
2023-01-09T13:22:46.000Z,31
2023-01-09T13:24:02.000Z,32
2023-01-09T13:25:18.000Z,31.7
2023-01-09T13:26:34.000Z,32.2
2023-01-09T13:27:50.000Z,30.6
2023-01-09T13:29:06.000Z,31.3
2023-01-09T13:30:23.000Z,28.1
2023-01-09T13:31:39.000Z,27.9
2023-01-09T13:32:54.000Z,26.4
2023-01-09T13:34:10.000Z,26.7
2023-01-09T13:35:26.000Z,26.2
2023-01-09T13:36:42.000Z,26.4
2023-01-09T13:37:58.000Z,27
2023-01-09T13:39:15.000Z,26.9
2023-01-09T13:40:31.000Z,27.4
2023-01-09T13:41:47.000Z,29
2023-01-09T13:43:03.000Z,26.6
2023-01-09T13:44:19.000Z,27.1
2023-01-09T13:45:35.000Z,26.3
2023-01-09T13:46:51.000Z,26.3
2023-01-09T13:48:08.000Z,23
2023-01-09T13:49:23.000Z,24.8
2023-01-09T13:50:39.678Z,22.9
2023-01-09T13:51:55.000Z,21.8
2023-01-09T13:53:11.968Z,20.6
2023-01-09T13:54:27.000Z,21.1
2023-01-09T13:55:44.256Z,20.7
2023-01-09T13:57:00.000Z,20.2
2023-01-09T13:58:16.000Z,19.3
2023-01-09T13:59:32.000Z,18.8
2023-01-09T14:00:48.000Z,19.6
2023-01-09T14:02:04.000Z,18.4
2023-01-09T14:03:20.000Z,17.3
2023-01-09T14:04:37.000Z,17.4
2023-01-09T14:05:52.000Z,17.3
2023-01-09T14:07:08.000Z,16.6
2023-01-09T14:08:24.000Z,16.6
2023-01-09T14:09:40.000Z,16.2
2023-01-09T14:10:56.000Z,14.9
2023-01-09T14:12:12.000Z,14.2
2023-01-09T14:13:28.000Z,14.7
2023-01-09T14:14:44.000Z,13.1
2023-01-09T14:16:00.000Z,12.4
2023-01-09T14:17:16.768Z,11
2023-01-09T14:18:32.000Z,10.9
2023-01-09T14:19:48.000Z,8.9
2023-01-09T14:21:04.000Z,8.3
2023-01-09T14:22:21.395Z,8.6
2023-01-09T14:23:37.497Z,8
2023-01-09T14:24:53.641Z,7.6
2023-01-09T14:26:09.000Z,8.1
2023-01-09T14:27:25.000Z,7.6
2023-01-09T14:28:41.000Z,7.7
2023-01-09T14:29:57.243Z,8.4
2023-01-09T14:31:13.000Z,7.5
2023-01-09T14:32:29.000Z,7.7
2023-01-09T14:33:45.000Z,7.7
2023-01-09T14:35:01.000Z,7.4
2023-01-09T14:36:17.000Z,7
2023-01-09T14:37:33.000Z,7.2
2023-01-09T14:38:50.000Z,7
2023-01-09T14:40:06.000Z,7.7
2023-01-09T14:41:22.000Z,7.9
2023-01-09T14:42:38.000Z,7.3
2023-01-09T14:43:54.000Z,7.8
2023-01-09T14:45:10.000Z,7.8
2023-01-09T14:46:25.000Z,7.8
2023-01-09T14:47:42.000Z,7.7
2023-01-09T14:48:58.438Z,7.2
2023-01-09T14:50:14.000Z,7.9
2023-01-09T14:51:30.000Z,8.2
2023-01-09T14:52:46.000Z,8.2
2023-01-09T14:54:02.000Z,7.7
2023-01-09T14:55:19.167Z,8.1
2023-01-09T14:56:35.000Z,8.6
2023-01-09T14:57:51.000Z,8.8
2023-01-09T14:59:07.000Z,8.6
2023-01-09T15:00:23.000Z,9.9
2023-01-09T15:01:39.899Z,9.9
2023-01-09T15:02:54.000Z,10.3
2023-01-09T15:04:10.000Z,8.9
2023-01-09T15:05:27.347Z,9.7
2023-01-09T15:06:43.000Z,9.9
2023-01-09T15:07:59.000Z,9.6
2023-01-09T15:09:15.000Z,9.2
2023-01-09T15:10:31.000Z,8.9
2023-01-09T15:11:48.075Z,8.5
2023-01-09T15:13:03.000Z,9.1
2023-01-09T15:14:20.000Z,8.5
2023-01-09T15:15:36.000Z,8.9
2023-01-09T15:16:52.000Z,8.8
2023-01-09T15:18:08.000Z,8.5
2023-01-09T15:19:23.000Z,9.3
2023-01-09T15:20:39.000Z,8.7
2023-01-09T15:21:56.000Z,9.4
2023-01-09T15:23:12.000Z,8.3
2023-01-09T15:24:28.000Z,8.5
2023-01-09T15:25:44.000Z,8.6
2023-01-09T15:27:00.000Z,8.9
2023-01-09T15:28:16.000Z,8.7
2023-01-09T15:29:32.000Z,8.8
2023-01-09T15:30:49.000Z,9.1
2023-01-09T15:32:05.000Z,9.2
2023-01-09T15:33:21.000Z,9
2023-01-09T15:34:37.000Z,9.4
2023-01-09T15:35:52.000Z,9.3
2023-01-09T15:37:08.000Z,8.8
2023-01-09T15:38:24.000Z,9.1
2023-01-09T15:39:41.000Z,9.8
2023-01-09T15:40:57.000Z,9.4
2023-01-09T15:42:13.601Z,9
2023-01-09T15:43:29.000Z,11.3
2023-01-09T15:44:45.000Z,10.2
2023-01-09T15:46:01.000Z,10.7
2023-01-09T15:47:17.000Z,10.8
2023-01-09T15:48:34.343Z,11.2
2023-01-09T15:49:50.000Z,10.7
2023-01-09T15:51:06.000Z,10.5
2023-01-09T15:52:21.000Z,11.3
2023-01-09T15:53:37.000Z,10.7
2023-01-09T15:54:53.000Z,10.1
2023-01-09T15:56:09.000Z,9.8
2023-01-09T15:57:26.000Z,11
2023-01-09T15:58:42.000Z,11
2023-01-09T15:59:58.000Z,10.6
2023-01-09T16:01:14.000Z,10
2023-01-09T16:02:30.000Z,10.9
2023-01-09T16:03:46.000Z,10.2
2023-01-09T16:05:03.000Z,11.1
2023-01-09T16:06:19.000Z,11.2
2023-01-09T16:07:35.537Z,10.7
2023-01-09T16:08:51.000Z,9.8
2023-01-09T16:10:06.000Z,10.7
2023-01-09T16:11:22.000Z,10.4
2023-01-09T16:12:38.000Z,11.1
2023-01-09T16:13:55.000Z,10.8
2023-01-09T16:15:11.000Z,11.5
2023-01-09T16:16:27.000Z,10.8
2023-01-09T16:17:43.000Z,12
2023-01-09T16:18:59.856Z,11.3
2023-01-09T16:20:15.000Z,11.5
2023-01-09T16:21:31.000Z,11.6
2023-01-09T16:22:48.296Z,11.8
2023-01-09T16:24:04.000Z,11.3
2023-01-09T16:25:20.000Z,11.8
2023-01-09T16:26:35.000Z,10.7
2023-01-09T16:27:51.893Z,10.9
2023-01-09T16:29:07.000Z,11.8
2023-01-09T16:30:23.000Z,11.6
2023-01-09T16:31:40.000Z,11.5
2023-01-09T16:32:56.000Z,11.8
2023-01-09T16:34:12.000Z,11.2
2023-01-09T16:35:28.000Z,11.5
2023-01-09T16:36:44.000Z,11.4
2023-01-09T16:38:00.000Z,11.4
2023-01-09T16:39:16.000Z,11.7
2023-01-09T16:40:33.000Z,11.5
2023-01-09T16:41:49.000Z,11.7
2023-01-09T16:43:04.000Z,11.6
2023-01-09T16:44:20.000Z,12.3
2023-01-09T16:45:36.000Z,12.5
2023-01-09T16:46:52.000Z,12.3
2023-01-09T16:48:09.000Z,11.7
2023-01-09T16:49:25.000Z,12.7
2023-01-09T16:50:41.000Z,11.3
2023-01-09T16:51:57.000Z,12.5
2023-01-09T16:53:13.000Z,11.7
2023-01-09T16:54:29.000Z,11.8
2023-01-09T16:55:45.000Z,10.6
2023-01-09T16:57:02.000Z,11.2
2023-01-09T16:58:18.000Z,11.9
2023-01-09T16:59:33.000Z,11.8
2023-01-09T17:00:49.000Z,11.7
2023-01-09T17:02:05.000Z,11.4
2023-01-09T17:03:21.000Z,12.2
2023-01-09T17:04:37.000Z,12.4
2023-01-09T17:05:54.000Z,14.5
2023-01-09T17:07:10.000Z,14.4
2023-01-09T17:08:26.000Z,14.8
2023-01-09T17:09:42.000Z,14.7
2023-01-09T17:10:58.000Z,15.7
2023-01-09T17:12:14.000Z,15.4
2023-01-09T17:13:30.000Z,16.7
2023-01-09T17:14:47.000Z,15.9
2023-01-09T17:16:02.000Z,18.1
2023-01-09T17:17:18.000Z,19.3
2023-01-09T17:18:34.000Z,20.1
2023-01-09T17:19:50.000Z,20.6